createdAt,value
2023-02-27T00:00:14.971Z,9.90
2023-02-27T00:02:45.389Z,9.80
2023-02-27T00:05:12.994Z,9.80
2023-02-27T00:07:40.658Z,9.80
2023-02-27T00:10:08.765Z,9.80
2023-02-27T00:12:37.871Z,9.80
2023-02-27T00:15:13.147Z,9.90
2023-02-27T00:17:40.539Z,9.90
2023-02-27T00:20:10.088Z,9.90
2023-02-27T00:22:37.445Z,9.90
2023-02-27T00:25:04.994Z,9.90
2023-02-27T00:27:32.776Z,9.80
2023-02-27T00:30:00.096Z,9.80
2023-02-27T00:32:27.484Z,9.90
2023-02-27T00:34:54.654Z,9.80
2023-02-27T00:37:21.791Z,9.80
2023-02-27T00:39:49.005Z,9.80
2023-02-27T00:42:16.145Z,9.70
2023-02-27T00:44:43.288Z,9.80
2023-02-27T00:47:10.389Z,9.70
2023-02-27T00:49:40.061Z,9.70
2023-02-27T00:52:07.497Z,9.70
2023-02-27T00:54:34.614Z,9.60
2023-02-27T00:57:01.714Z,9.60
2023-02-27T00:59:28.904Z,9.60
2023-02-27T01:01:56.048Z,9.70
2023-02-27T01:04:23.198Z,9.70
2023-02-27T01:06:50.341Z,9.70
2023-02-27T01:09:17.509Z,9.70
2023-02-27T01:11:44.633Z,9.70
2023-02-27T01:14:11.784Z,9.70
2023-02-27T01:16:38.998Z,9.70
2023-02-27T01:19:06.218Z,9.80
2023-02-27T01:21:33.356Z,9.80
2023-02-27T01:24:00.671Z,9.80
2023-02-27T01:26:27.800Z,9.70
2023-02-27T01:28:54.988Z,9.70
2023-02-27T01:31:22.139Z,9.70
2023-02-27T01:33:49.402Z,9.80
2023-02-27T01:36:16.539Z,9.80
2023-02-27T01:38:43.778Z,9.70
2023-02-27T01:41:10.959Z,9.60
2023-02-27T01:43:56.571Z,9.70
2023-02-27T01:46:24.430Z,9.60
2023-02-27T01:48:54.417Z,9.60
2023-02-27T01:51:21.923Z,9.70
2023-02-27T01:53:50.878Z,9.70
2023-02-27T01:56:19.753Z,9.60
2023-02-27T01:58:47.770Z,9.60
2023-02-27T02:01:15.567Z,9.70
2023-02-27T02:03:46.713Z,9.70
2023-02-27T02:06:13.894Z,9.80
2023-02-27T02:08:46.307Z,9.80
2023-02-27T02:11:15.008Z,9.80
2023-02-27T02:13:42.390Z,9.70
2023-02-27T02:16:12.026Z,9.70
2023-02-27T02:18:45.312Z,9.70
2023-02-27T02:21:25.952Z,9.60
2023-02-27T02:24:03.510Z,9.70
2023-02-27T02:26:39.151Z,9.60
2023-02-27T02:29:24.772Z,9.60
2023-02-27T02:32:07.543Z,9.60
2023-02-27T02:34:52.702Z,9.60
2023-02-27T02:37:22.664Z,9.60
2023-02-27T02:40:08.388Z,9.60
2023-02-27T02:42:35.913Z,9.60
2023-02-27T02:45:03.030Z,9.40
2023-02-27T02:47:32.882Z,9.30
2023-02-27T02:50:05.340Z,9.40
2023-02-27T02:52:39.952Z,9.50
2023-02-27T02:55:07.143Z,9.50
2023-02-27T02:57:39.825Z,9.60
2023-02-27T03:00:10.658Z,9.50
2023-02-27T03:02:40.305Z,9.50
2023-02-27T03:05:09.628Z,9.40
2023-02-27T03:07:39.443Z,9.40
2023-02-27T03:10:06.862Z,9.40
2023-02-27T03:12:35.040Z,9.50
2023-02-27T03:15:06.140Z,9.40
2023-02-27T03:17:46.794Z,9.40
2023-02-27T03:20:40.372Z,9.50
2023-02-27T03:23:11.164Z,9.50
2023-02-27T03:25:38.998Z,9.50
2023-02-27T03:28:09.639Z,9.50
2023-02-27T03:30:39.876Z,9.50
2023-02-27T03:33:07.100Z,9.40
2023-02-27T03:35:42.725Z,9.50
2023-02-27T03:38:20.920Z,9.40
2023-02-27T03:41:06.756Z,9.40
2023-02-27T03:43:58.873Z,9.40
2023-02-27T03:46:26.986Z,9.40
2023-02-27T03:48:54.664Z,9.40
2023-02-27T03:51:24.486Z,9.40
2023-02-27T03:53:58.894Z,9.50
2023-02-27T03:56:29.295Z,9.40
2023-02-27T03:58:57.769Z,9.40
2023-02-27T04:01:25.809Z,9.30
2023-02-27T04:03:56.915Z,9.40
2023-02-27T04:07:06.622Z,9.50
2023-02-27T04:09:33.764Z,9.40
2023-02-27T04:12:18.674Z,9.40
2023-02-27T04:14:56.369Z,9.40
2023-02-27T04:17:29.024Z,9.30
2023-02-27T04:19:56.116Z,9.40
2023-02-27T04:22:23.250Z,9.30
2023-02-27T04:25:11.494Z,9.20
2023-02-27T04:27:54.809Z,9.40
2023-02-27T04:30:28.225Z,9.50
2023-02-27T04:32:58.306Z,9.30
2023-02-27T04:35:47.240Z,9.40
2023-02-27T04:38:14.377Z,9.50
2023-02-27T04:40:54.769Z,9.40
2023-02-27T04:43:24.326Z,9.50
2023-02-27T04:45:53.030Z,9.40
2023-02-27T04:48:20.132Z,9.40
2023-02-27T04:50:50.627Z,9.40
2023-02-27T04:53:29.439Z,9.40
2023-02-27T04:56:16.780Z,9.40
2023-02-27T04:58:50.457Z,9.40
2023-02-27T05:01:23.940Z,9.40
2023-02-27T05:03:52.594Z,9.40
2023-02-27T05:06:22.372Z,9.50
2023-02-27T05:09:01.443Z,9.50
2023-02-27T05:11:34.286Z,9.60
2023-02-27T05:14:04.361Z,9.70
2023-02-27T05:16:35.766Z,9.60
2023-02-27T05:19:03.591Z,9.60
2023-02-27T05:21:32.272Z,9.70
2023-02-27T05:24:02.231Z,9.50
2023-02-27T05:26:32.046Z,9.60
2023-02-27T05:29:17.779Z,9.60
2023-02-27T05:31:52.136Z,9.60
2023-02-27T05:34:19.304Z,9.60
2023-02-27T05:36:49.875Z,9.60
2023-02-27T05:39:19.420Z,9.70
2023-02-27T05:42:12.891Z,9.60
2023-02-27T05:44:45.840Z,9.60
2023-02-27T05:47:17.308Z,9.60
2023-02-27T05:49:47.481Z,9.60
2023-02-27T05:52:16.524Z,9.60
2023-02-27T05:54:51.880Z,9.60
2023-02-27T05:57:37.880Z,9.60
2023-02-27T06:00:25.008Z,9.70
2023-02-27T06:02:53.281Z,9.60
2023-02-27T06:05:20.742Z,9.70
2023-02-27T06:07:47.909Z,9.70
2023-02-27T06:10:15.863Z,9.70
2023-02-27T06:12:43.306Z,9.60
2023-02-27T06:15:10.967Z,9.60
2023-02-27T06:17:39.052Z,9.60
2023-02-27T06:20:06.878Z,9.60
2023-02-27T06:22:34.303Z,9.70
2023-02-27T06:25:01.511Z,9.70
2023-02-27T06:27:28.672Z,9.70
2023-02-27T06:29:55.828Z,9.70
2023-02-27T06:32:25.464Z,9.70
2023-02-27T06:34:53.081Z,9.70
2023-02-27T06:37:21.697Z,9.70
2023-02-27T06:39:48.952Z,9.70
2023-02-27T06:42:17.193Z,9.70
2023-02-27T06:44:44.348Z,9.70
2023-02-27T06:47:11.456Z,9.70
2023-02-27T06:49:38.637Z,9.40
2023-02-27T06:52:05.788Z,9.30
2023-02-27T06:54:33.863Z,9.30
2023-02-27T06:57:01.204Z,9.30
2023-02-27T06:59:28.374Z,9.30
2023-02-27T07:01:55.619Z,9.40
2023-02-27T07:04:22.817Z,9.50
2023-02-27T07:07:36.467Z,9.40
2023-02-27T07:09:37.221Z,9.30
2023-02-27T07:12:04.987Z,9.30
2023-02-27T07:14:32.540Z,9.30
2023-02-27T07:17:03.370Z,9.30
2023-02-27T07:19:31.360Z,9.20
2023-02-27T07:21:58.452Z,9.20
2023-02-27T07:24:25.594Z,9.10
2023-02-27T07:26:53.706Z,9.20
2023-02-27T07:29:20.858Z,9.10
2023-02-27T07:31:48.214Z,9.00
2023-02-27T07:34:15.749Z,9.10
2023-02-27T07:36:43.423Z,9.10
2023-02-27T07:39:11.896Z,9.20
2023-02-27T07:41:39.093Z,9.30
2023-02-27T07:44:08.579Z,9.30
2023-02-27T07:46:35.998Z,9.30
2023-02-27T07:49:03.266Z,9.30
2023-02-27T07:51:30.384Z,9.30
2023-02-27T07:53:58.427Z,9.30
2023-02-27T07:56:26.609Z,9.20
2023-02-27T07:58:54.074Z,9.10
2023-02-27T08:01:21.470Z,9.30
2023-02-27T08:03:48.541Z,9.30
2023-02-27T08:06:15.754Z,9.20
2023-02-27T08:08:42.981Z,9.40
2023-02-27T08:11:10.223Z,9.40
2023-02-27T08:16:24.479Z,9.40
2023-02-27T08:18:51.618Z,9.40
2023-02-27T08:21:18.868Z,9.50
2023-02-27T08:23:46.019Z,9.40
2023-02-27T08:26:13.731Z,9.40
2023-02-27T08:28:40.949Z,9.60
2023-02-27T08:31:08.148Z,9.60
2023-02-27T08:33:35.850Z,9.40
2023-02-27T08:36:03.075Z,9.10
2023-02-27T08:38:30.246Z,9.20
2023-02-27T08:40:57.343Z,9.40
2023-02-27T08:43:24.589Z,9.60
2023-02-27T08:45:51.760Z,9.70
2023-02-27T08:48:18.962Z,9.70
2023-02-27T08:50:46.653Z,9.80
2023-02-27T08:53:14.157Z,9.90
2023-02-27T08:55:41.384Z,9.90
2023-02-27T08:58:09.468Z,10.00
2023-02-27T09:00:36.653Z,10.00
2023-02-27T09:03:03.896Z,10.10
2023-02-27T09:05:35.237Z,10.10
2023-02-27T09:08:02.721Z,10.10
2023-02-27T09:10:30.309Z,10.20
2023-02-27T09:12:57.440Z,10.30
2023-02-27T09:15:25.010Z,10.30
2023-02-27T09:17:52.173Z,10.40
2023-02-27T09:20:19.379Z,10.40
2023-02-27T09:22:46.619Z,10.40
2023-02-27T09:25:13.712Z,10.50
2023-02-27T09:27:40.876Z,10.80
2023-02-27T09:30:09.068Z,10.70
2023-02-27T09:32:36.311Z,10.70
2023-02-27T09:35:03.727Z,10.70
2023-02-27T09:37:30.845Z,10.60
2023-02-27T09:39:57.988Z,10.70
2023-02-27T09:42:26.441Z,10.80
2023-02-27T09:44:58.150Z,10.80
2023-02-27T09:47:25.417Z,10.80
2023-02-27T09:50:00.628Z,10.80
2023-02-27T09:52:28.798Z,10.80
2023-02-27T09:54:56.111Z,10.70
2023-02-27T09:57:38.317Z,10.70
2023-02-27T10:00:13.701Z,10.70
2023-02-27T10:02:46.945Z,10.70
2023-02-27T10:05:14.025Z,10.80
2023-02-27T10:07:41.438Z,10.80
2023-02-27T10:10:31.324Z,10.90
2023-02-27T10:13:16.600Z,10.80
2023-02-27T10:15:47.202Z,11.00
2023-02-27T10:18:26.784Z,11.20
2023-02-27T10:21:11.003Z,11.30
2023-02-27T10:23:44.367Z,11.50
2023-02-27T10:26:19.430Z,12.30
2023-02-27T10:28:46.657Z,12.00
2023-02-27T10:31:26.344Z,12.00
2023-02-27T10:33:55.417Z,12.30
2023-02-27T10:36:33.112Z,12.50
2023-02-27T10:39:05.089Z,12.60
2023-02-27T10:41:32.793Z,12.70
2023-02-27T10:44:00.241Z,12.90
2023-02-27T10:46:29.113Z,13.00
2023-02-27T10:49:00.216Z,13.20
2023-02-27T10:51:32.037Z,13.40
2023-02-27T10:54:11.455Z,13.50
2023-02-27T10:56:39.456Z,13.50
2023-02-27T10:59:07.898Z,13.50
2023-02-27T11:01:42.467Z,13.60
2023-02-27T11:04:10.832Z,13.60
2023-02-27T11:06:38.287Z,13.80
2023-02-27T11:09:10.068Z,14.00
2023-02-27T11:11:37.983Z,13.90
2023-02-27T11:14:15.947Z,13.70
2023-02-27T11:16:49.498Z,13.40
2023-02-27T11:19:29.294Z,13.40
2023-02-27T11:22:16.182Z,13.20
2023-02-27T11:24:43.313Z,13.20
2023-02-27T11:27:30.799Z,13.50
2023-02-27T11:30:02.465Z,13.70
2023-02-27T11:32:45.981Z,13.90
2023-02-27T11:35:22.380Z,13.80
2023-02-27T11:37:53.435Z,13.80
2023-02-27T11:40:22.221Z,13.50
2023-02-27T11:42:50.863Z,13.30
2023-02-27T11:46:13.304Z,13.40
2023-02-27T11:48:11.251Z,13.40
2023-02-27T11:51:01.828Z,13.40
2023-02-27T11:53:28.953Z,13.40
2023-02-27T11:55:59.467Z,13.40
2023-02-27T11:58:28.261Z,13.60
2023-02-27T12:01:01.308Z,13.70
2023-02-27T12:03:34.320Z,13.70
2023-02-27T12:06:04.897Z,13.80
2023-02-27T12:08:42.236Z,13.80
2023-02-27T12:11:28.193Z,13.90
2023-02-27T12:14:02.521Z,13.90
2023-02-27T12:16:43.281Z,14.20
2023-02-27T12:19:13.287Z,14.20
2023-02-27T12:21:42.304Z,14.30
2023-02-27T12:24:14.457Z,14.40
2023-02-27T12:26:43.427Z,14.40
2023-02-27T12:29:34.506Z,14.50
2023-02-27T12:32:03.242Z,14.60
2023-02-27T12:34:46.494Z,14.70
2023-02-27T12:37:17.225Z,14.60
2023-02-27T12:39:45.446Z,14.70
2023-02-27T12:44:48.104Z,15.30
2023-02-27T12:47:19.659Z,15.20
2023-02-27T12:50:02.725Z,14.80
2023-02-27T12:52:34.966Z,14.90
2023-02-27T12:55:11.683Z,14.70
2023-02-27T12:57:59.127Z,14.50
2023-02-27T13:00:28.856Z,14.50
2023-02-27T13:02:58.662Z,14.50
2023-02-27T13:05:28.813Z,14.40
2023-02-27T13:08:14.403Z,14.40
2023-02-27T13:11:06.673Z,14.40
2023-02-27T13:13:45.721Z,14.30
2023-02-27T13:16:19.253Z,14.20
2023-02-27T13:19:05.107Z,14.10
2023-02-27T13:21:38.577Z,14.00
2023-02-27T13:24:19.136Z,14.10
2023-02-27T13:26:58.106Z,14.00
2023-02-27T13:29:28.122Z,14.00
2023-02-27T13:31:58.356Z,13.90
2023-02-27T13:34:37.518Z,13.70
2023-02-27T13:37:06.100Z,13.70
2023-02-27T13:39:51.824Z,13.60
2023-02-27T13:42:28.968Z,13.50
2023-02-27T13:44:58.891Z,13.50
2023-02-27T13:47:28.846Z,13.50
2023-02-27T13:49:56.419Z,13.60
2023-02-27T13:52:37.096Z,13.60
2023-02-27T13:55:24.313Z,13.60
2023-02-27T13:57:53.500Z,13.40
2023-02-27T14:00:22.920Z,13.30
2023-02-27T14:03:00.256Z,13.30
2023-02-27T14:05:30.223Z,13.20
2023-02-27T14:07:59.205Z,13.20
2023-02-27T14:10:28.694Z,13.10
2023-02-27T14:12:57.610Z,12.90
2023-02-27T14:15:24.674Z,12.90
2023-02-27T14:18:05.834Z,12.80
2023-02-27T14:20:39.772Z,12.90
2023-02-27T14:23:13.081Z,12.90
2023-02-27T14:25:43.724Z,12.50
2023-02-27T14:28:15.410Z,12.60
2023-02-27T14:30:45.525Z,12.60
2023-02-27T14:33:33.219Z,12.70
2023-02-27T14:36:08.670Z,12.80
2023-02-27T14:38:37.260Z,12.70
2023-02-27T14:41:14.801Z,12.70
2023-02-27T14:43:46.032Z,12.40
2023-02-27T14:46:21.972Z,12.30
2023-02-27T14:48:56.400Z,12.40
2023-02-27T14:51:24.437Z,12.50
2023-02-27T14:54:13.094Z,12.50
2023-02-27T14:56:40.852Z,12.60
2023-02-27T14:59:27.488Z,12.60
2023-02-27T15:01:55.627Z,12.50
2023-02-27T15:04:23.783Z,12.40
2023-02-27T15:06:52.013Z,12.30
2023-02-27T15:09:24.033Z,12.30
2023-02-27T15:12:03.655Z,12.50
2023-02-27T15:14:33.441Z,12.50
2023-02-27T15:17:00.605Z,12.40
2023-02-27T15:19:29.129Z,12.50
2023-02-27T15:21:58.806Z,12.50
2023-02-27T15:24:37.696Z,12.50
2023-02-27T15:27:13.622Z,12.40
2023-02-27T15:29:45.248Z,12.40
2023-02-27T15:32:26.046Z,12.30
2023-02-27T15:34:53.440Z,12.30
2023-02-27T15:37:22.101Z,12.40
2023-02-27T15:39:50.502Z,12.40
2023-02-27T15:42:18.724Z,12.30
2023-02-27T15:44:46.896Z,12.40
2023-02-27T15:47:21.952Z,12.40
2023-02-27T15:49:50.267Z,12.40
2023-02-27T15:52:17.526Z,12.30
2023-02-27T15:54:51.936Z,12.20
2023-02-27T15:57:20.312Z,12.30
2023-02-27T15:59:47.521Z,12.30
2023-02-27T16:02:25.872Z,12.30
2023-02-27T16:04:53.108Z,12.30
2023-02-27T16:07:22.298Z,12.20
2023-02-27T16:09:50.813Z,12.20
2023-02-27T16:12:22.096Z,12.20
2023-02-27T16:14:52.675Z,12.20
2023-02-27T16:17:22.708Z,12.20
2023-02-27T16:19:49.794Z,12.10
2023-02-27T16:22:18.262Z,12.00
2023-02-27T16:24:45.819Z,12.10
2023-02-27T16:27:22.539Z,12.10
2023-02-27T16:29:49.760Z,12.00
2023-02-27T16:32:24.489Z,12.10
2023-02-27T16:34:52.165Z,12.00
2023-02-27T16:37:21.121Z,12.00
2023-02-27T16:39:49.606Z,12.00
2023-02-27T16:42:16.717Z,11.90
2023-02-27T16:44:43.948Z,11.90
2023-02-27T16:47:11.097Z,11.90
2023-02-27T16:49:40.359Z,11.90
2023-02-27T16:52:09.305Z,11.80
2023-02-27T16:54:36.844Z,11.80
2023-02-27T16:57:04.045Z,11.80
2023-02-27T16:59:39.853Z,11.80
2023-02-27T17:02:14.405Z,11.70
2023-02-27T17:04:47.563Z,11.70
2023-02-27T17:07:15.884Z,11.70
2023-02-27T17:09:46.863Z,11.70
2023-02-27T17:12:14.313Z,11.70
2023-02-27T17:14:41.547Z,11.60
2023-02-27T17:17:10.932Z,11.60
2023-02-27T17:19:38.049Z,11.60
2023-02-27T17:22:05.416Z,11.60
2023-02-27T17:24:32.604Z,11.60
2023-02-27T17:26:59.702Z,11.50
2023-02-27T17:29:26.963Z,11.50
2023-02-27T17:31:54.286Z,11.50
2023-02-27T17:34:21.512Z,11.50
2023-02-27T17:36:49.054Z,11.50
2023-02-27T17:39:16.178Z,11.40
2023-02-27T17:41:43.761Z,11.40
2023-02-27T17:44:11.464Z,11.30
2023-02-27T17:46:38.998Z,11.40
2023-02-27T17:49:06.492Z,11.40
2023-02-27T17:51:33.994Z,11.40
2023-02-27T17:54:02.165Z,11.30
2023-02-27T17:56:29.702Z,11.30
2023-02-27T17:58:57.659Z,11.30
2023-02-27T18:01:26.215Z,11.30
2023-02-27T18:03:54.336Z,11.30
2023-02-27T18:06:22.509Z,11.30
2023-02-27T18:08:49.697Z,11.30
2023-02-27T18:11:18.491Z,11.20
2023-02-27T18:13:46.574Z,11.20
2023-02-27T18:16:14.113Z,11.30
2023-02-27T18:18:42.642Z,11.20
2023-02-27T18:21:09.902Z,11.20
2023-02-27T18:23:37.605Z,11.10
2023-02-27T18:26:05.069Z,11.10
2023-02-27T18:28:32.277Z,11.20
2023-02-27T18:30:59.630Z,11.30
2023-02-27T18:33:27.499Z,11.20
2023-02-27T18:35:54.754Z,11.10
2023-02-27T18:38:21.933Z,11.00
2023-02-27T18:40:49.048Z,11.00
2023-02-27T18:43:16.265Z,11.10
2023-02-27T18:45:43.611Z,11.00
2023-02-27T18:48:10.817Z,10.90
2023-02-27T18:50:38.038Z,11.00
2023-02-27T18:53:05.258Z,11.00
2023-02-27T18:55:32.397Z,11.10
2023-02-27T18:57:59.479Z,11.00
2023-02-27T19:00:26.667Z,11.00
2023-02-27T19:02:53.876Z,11.10
2023-02-27T19:05:21.113Z,10.90
2023-02-27T19:07:48.322Z,11.00
2023-02-27T19:10:15.453Z,11.10
2023-02-27T19:12:42.632Z,11.00
2023-02-27T19:15:10.883Z,11.00
2023-02-27T19:17:38.179Z,11.10
2023-02-27T19:20:06.933Z,11.10
2023-02-27T19:22:34.215Z,11.00
2023-02-27T19:25:01.732Z,11.00
2023-02-27T19:27:28.986Z,11.00
2023-02-27T19:29:56.204Z,11.00
2023-02-27T19:32:23.458Z,11.00
2023-02-27T19:34:50.704Z,11.00
2023-02-27T19:37:18.183Z,11.00
2023-02-27T19:39:46.396Z,10.90
2023-02-27T19:42:13.548Z,10.90
2023-02-27T19:44:41.250Z,10.80
2023-02-27T19:47:08.559Z,10.90
2023-02-27T19:49:35.833Z,10.90
2023-02-27T19:52:03.117Z,11.00
2023-02-27T19:54:30.636Z,10.90
2023-02-27T19:56:57.844Z,10.80
2023-02-27T19:59:25.180Z,10.90
2023-02-27T20:01:52.734Z,10.90
2023-02-27T20:04:19.996Z,10.90
2023-02-27T20:06:47.715Z,10.90
2023-02-27T20:09:16.019Z,10.90
2023-02-27T20:11:43.630Z,10.90
2023-02-27T20:14:12.131Z,10.80
2023-02-27T20:16:39.875Z,10.70
2023-02-27T20:19:07.935Z,10.70
2023-02-27T20:21:35.151Z,10.80
2023-02-27T20:24:02.746Z,10.90
2023-02-27T20:26:31.697Z,10.80
2023-02-27T20:29:00.636Z,10.70
2023-02-27T20:31:29.125Z,10.60
2023-02-27T20:33:57.620Z,10.60
2023-02-27T20:36:24.840Z,10.50
2023-02-27T20:38:52.195Z,10.60
2023-02-27T20:41:20.849Z,10.60
2023-02-27T20:43:48.267Z,10.60
2023-02-27T20:46:17.501Z,10.50
2023-02-27T20:48:45.540Z,10.60
2023-02-27T20:51:14.531Z,10.50
2023-02-27T20:53:43.086Z,10.50
2023-02-27T20:56:11.028Z,10.50
2023-02-27T20:58:39.292Z,10.40
2023-02-27T21:01:13.424Z,10.30
2023-02-27T21:03:41.784Z,10.30
2023-02-27T21:06:09.812Z,10.30
2023-02-27T21:08:41.041Z,10.20
2023-02-27T21:11:13.055Z,10.20
2023-02-27T21:13:40.888Z,10.30
2023-02-27T21:16:09.471Z,10.20
2023-02-27T21:18:37.332Z,10.20
2023-02-27T21:21:05.683Z,10.20
2023-02-27T21:23:33.417Z,10.10
2023-02-27T21:26:01.137Z,10.10
2023-02-27T21:28:28.323Z,10.20
2023-02-27T21:30:55.479Z,10.10
2023-02-27T21:33:22.652Z,10.00
2023-02-27T21:35:49.922Z,10.00
2023-02-27T21:38:17.502Z,10.00
2023-02-27T21:40:44.732Z,10.10
2023-02-27T21:43:12.030Z,10.00
2023-02-27T21:45:43.961Z,10.10
2023-02-27T21:48:11.841Z,10.00
2023-02-27T21:50:39.209Z,10.00
2023-02-27T21:53:06.457Z,10.00
2023-02-27T21:55:34.127Z,10.10
2023-02-27T21:58:04.058Z,10.10
2023-02-27T22:00:31.601Z,10.10
2023-02-27T22:02:58.776Z,9.90
2023-02-27T22:05:26.056Z,10.00
2023-02-27T22:07:53.152Z,10.00
2023-02-27T22:10:20.516Z,10.00
2023-02-27T22:12:47.909Z,10.00
2023-02-27T22:15:15.195Z,10.10
2023-02-27T22:17:42.303Z,10.00
2023-02-27T22:20:09.921Z,10.00
2023-02-27T22:22:37.252Z,10.00
2023-02-27T22:25:04.437Z,10.00
2023-02-27T22:27:31.823Z,10.00
2023-02-27T22:29:59.032Z,10.00
2023-02-27T22:32:26.213Z,10.00
2023-02-27T22:34:53.332Z,10.00
2023-02-27T22:37:20.422Z,10.00
2023-02-27T22:39:47.525Z,10.00
2023-02-27T22:42:14.596Z,10.00
2023-02-27T22:44:41.668Z,9.80
2023-02-27T22:47:10.343Z,10.00
2023-02-27T22:49:39.152Z,9.80
2023-02-27T22:52:06.357Z,9.90
2023-02-27T22:54:33.452Z,9.90
2023-02-27T22:57:00.560Z,9.70
2023-02-27T22:59:29.192Z,9.70
2023-02-27T23:01:56.376Z,9.90
2023-02-27T23:04:23.574Z,9.90
2023-02-27T23:06:52.673Z,10.00
2023-02-27T23:09:21.367Z,10.00
2023-02-27T23:11:48.541Z,10.00
2023-02-27T23:14:15.965Z,10.00
2023-02-27T23:16:46.693Z,10.00
2023-02-27T23:19:15.295Z,10.00
2023-02-27T23:21:42.432Z,10.10
2023-02-27T23:24:12.625Z,10.10
2023-02-27T23:26:41.483Z,10.10
2023-02-27T23:29:08.948Z,10.10
2023-02-27T23:31:36.971Z,10.00
2023-02-27T23:34:07.658Z,9.90
2023-02-27T23:36:35.453Z,10.00
2023-02-27T23:39:03.419Z,10.00
2023-02-27T23:41:31.316Z,10.10
2023-02-27T23:43:58.694Z,10.00
2023-02-27T23:46:30.284Z,10.00
2023-02-27T23:48:58.457Z,9.90
2023-02-27T23:51:25.585Z,9.90
2023-02-27T23:53:52.785Z,10.00
2023-02-27T23:56:22.099Z,10.10
2023-02-27T23:58:53.763Z,10.00
